sensor_id;sensor_type;location;lat;lon;timestamp;noise_LAeq;noise_LA_min;noise_LA_max;noise_LA01;noise_LA95
66589;Laerm;53447;49.272;11.070;2024-03-06T00:02:12;40.92;37.31;42.18;;
66589;Laerm;53447;49.272;11.070;2024-03-06T00:04:38;40.94;37.58;42.31;;
66589;Laerm;53447;49.272;11.070;2024-03-06T00:07:03;41.12;38.63;42.49;;
66589;Laerm;53447;49.272;11.070;2024-03-06T00:09:29;41.49;37.58;43.73;;
66589;Laerm;53447;49.272;11.070;2024-03-06T00:11:54;40.82;36.71;42.18;;
66589;Laerm;53447;49.272;11.070;2024-03-06T00:14:20;40.90;38.31;50.55;;
66589;Laerm;53447;49.272;11.070;2024-03-06T00:16:49;40.96;38.08;43.01;;
66589;Laerm;53447;49.272;11.070;2024-03-06T00:19:17;41.73;37.45;43.26;;
66589;Laerm;53447;49.272;11.070;2024-03-06T00:21:43;42.09;40.03;43.23;;
66589;Laerm;53447;49.272;11.070;2024-03-06T00:24:08;41.40;38.42;43.15;;
66589;Laerm;53447;49.272;11.070;2024-03-06T00:26:33;41.48;38.68;43.61;;
66589;Laerm;53447;49.272;11.070;2024-03-06T00:28:59;41.60;39.12;43.70;;
66589;Laerm;53447;49.272;11.070;2024-03-06T00:31:24;41.22;38.42;42.69;;
66589;Laerm;53447;49.272;11.070;2024-03-06T00:33:49;42.15;39.39;44.13;;
66589;Laerm;53447;49.272;11.070;2024-03-06T00:36:14;42.50;40.18;47.99;;
66589;Laerm;53447;49.272;11.070;2024-03-06T00:38:39;42.17;40.25;52.19;;
66589;Laerm;53447;49.272;11.070;2024-03-06T00:41:05;41.96;40.18;43.57;;
66589;Laerm;53447;49.272;11.070;2024-03-06T00:43:30;41.97;39.64;43.44;;
66589;Laerm;53447;49.272;11.070;2024-03-06T00:45:56;41.86;40.18;43.33;;
66589;Laerm;53447;49.272;11.070;2024-03-06T00:48:21;41.93;39.72;43.33;;
66589;Laerm;53447;49.272;11.070;2024-03-06T00:50:47;42.43;40.46;45.68;;
66589;Laerm;53447;49.272;11.070;2024-03-06T00:53:12;42.11;39.91;43.42;;
66589;Laerm;53447;49.272;11.070;2024-03-06T00:55:37;41.78;39.56;43.04;;
66589;Laerm;53447;49.272;11.070;2024-03-06T00:58:02;41.79;39.96;43.06;;
66589;Laerm;53447;49.272;11.070;2024-03-06T01:00:29;42.24;39.88;44.83;;
66589;Laerm;53447;49.272;11.070;2024-03-06T01:02:54;41.77;38.93;45.21;;
66589;Laerm;53447;49.272;11.070;2024-03-06T01:05:20;41.10;38.08;42.49;;
66589;Laerm;53447;49.272;11.070;2024-03-06T01:07:45;40.92;38.20;42.31;;
66589;Laerm;53447;49.272;11.070;2024-03-06T01:10:10;41.07;38.42;46.00;;
66589;Laerm;53447;49.272;11.070;2024-03-06T01:12:36;50.77;36.55;70.73;;
66589;Laerm;53447;49.272;11.070;2024-03-06T01:15:01;41.98;38.31;53.75;;
66589;Laerm;53447;49.272;11.070;2024-03-06T01:17:26;40.94;36.20;43.77;;
66589;Laerm;53447;49.272;11.070;2024-03-06T01:19:51;41.04;37.17;42.22;;
66589;Laerm;53447;49.272;11.070;2024-03-06T01:22:17;41.41;38.63;43.12;;
66589;Laerm;53447;49.272;11.070;2024-03-06T01:24:42;41.57;38.63;43.40;;
66589;Laerm;53447;49.272;11.070;2024-03-06T01:27:08;42.12;40.11;43.40;;
66589;Laerm;53447;49.272;11.070;2024-03-06T01:29:33;41.57;38.08;43.23;;
66589;Laerm;53447;49.272;11.070;2024-03-06T01:31:58;40.86;37.17;42.18;;
66589;Laerm;53447;49.272;11.070;2024-03-06T01:34:24;41.92;38.08;43.54;;
66589;Laerm;53447;49.272;11.070;2024-03-06T01:36:50;41.24;38.42;43.23;;
66589;Laerm;53447;49.272;11.070;2024-03-06T01:39:15;41.33;38.63;43.47;;
66589;Laerm;53447;49.272;11.070;2024-03-06T01:41:47;41.01;38.42;42.27;;
66589;Laerm;53447;49.272;11.070;2024-03-06T01:44:13;40.93;36.71;42.77;;
66589;Laerm;53447;49.272;11.070;2024-03-06T01:46:39;40.84;35.19;42.36;;
66589;Laerm;53447;49.272;11.070;2024-03-06T01:49:04;40.96;37.71;42.81;;
66589;Laerm;53447;49.272;11.070;2024-03-06T01:51:29;40.89;37.58;42.22;;
66589;Laerm;53447;49.272;11.070;2024-03-06T01:53:55;40.92;37.45;42.08;;
66589;Laerm;53447;49.272;11.070;2024-03-06T01:56:20;40.81;36.55;42.04;;
66589;Laerm;53447;49.272;11.070;2024-03-06T01:58:46;40.83;37.58;42.39;;
66589;Laerm;53447;49.272;11.070;2024-03-06T02:01:12;41.59;38.73;43.30;;
66589;Laerm;53447;49.272;11.070;2024-03-06T02:03:37;42.09;40.25;43.23;;
66589;Laerm;53447;49.272;11.070;2024-03-06T02:06:03;41.44;37.45;45.86;;
66589;Laerm;53447;49.272;11.070;2024-03-06T02:08:29;41.21;36.87;45.19;;
66589;Laerm;53447;49.272;11.070;2024-03-06T02:10:55;41.09;38.20;42.36;;
66589;Laerm;53447;49.272;11.070;2024-03-06T02:13:20;41.20;38.63;44.39;;
66589;Laerm;53447;49.272;11.070;2024-03-06T02:15:47;41.08;38.53;42.27;;
66589;Laerm;53447;49.272;11.070;2024-03-06T02:18:13;41.00;38.31;42.36;;
66589;Laerm;53447;49.272;11.070;2024-03-06T02:20:38;41.07;37.71;42.27;;
66589;Laerm;53447;49.272;11.070;2024-03-06T02:23:05;41.00;38.20;42.31;;
66589;Laerm;53447;49.272;11.070;2024-03-06T02:25:30;41.12;38.42;42.53;;
66589;Laerm;53447;49.272;11.070;2024-03-06T02:27:55;41.27;36.71;43.26;;
66589;Laerm;53447;49.272;11.070;2024-03-06T02:30:20;41.32;37.17;43.12;;
66589;Laerm;53447;49.272;11.070;2024-03-06T02:32:46;42.00;39.12;43.30;;
66589;Laerm;53447;49.272;11.070;2024-03-06T02:35:11;42.09;39.72;43.30;;
66589;Laerm;53447;49.272;11.070;2024-03-06T02:37:37;41.48;38.53;43.57;;
66589;Laerm;53447;49.272;11.070;2024-03-06T02:40:02;42.18;37.17;45.37;;
66589;Laerm;53447;49.272;11.070;2024-03-06T02:42:28;41.05;38.39;42.36;;
66589;Laerm;53447;49.272;11.070;2024-03-06T02:44:54;41.06;37.45;42.36;;
66589;Laerm;53447;49.272;11.070;2024-03-06T02:47:19;40.91;36.02;42.61;;
66589;Laerm;53447;49.272;11.070;2024-03-06T02:49:44;42.29;39.03;58.83;;
66589;Laerm;53447;49.272;11.070;2024-03-06T02:52:10;41.26;37.45;42.73;;
66589;Laerm;53447;49.272;11.070;2024-03-06T02:54:35;41.07;36.38;42.53;;
66589;Laerm;53447;49.272;11.070;2024-03-06T02:57:00;40.90;35.41;42.22;;
66589;Laerm;53447;49.272;11.070;2024-03-06T02:59:26;40.97;36.02;42.57;;
66589;Laerm;53447;49.272;11.070;2024-03-06T03:01:51;41.72;36.87;43.89;;
66589;Laerm;53447;49.272;11.070;2024-03-06T03:04:17;41.41;36.55;50.43;;
66589;Laerm;53447;49.272;11.070;2024-03-06T03:06:42;41.80;37.02;44.78;;
66589;Laerm;53447;49.272;11.070;2024-03-06T03:09:08;42.24;39.88;43.70;;
66589;Laerm;53447;49.272;11.070;2024-03-06T03:11:36;42.56;39.03;46.22;;
66589;Laerm;53447;49.272;11.070;2024-03-06T03:14:01;41.57;38.31;52.06;;
66589;Laerm;53447;49.272;11.070;2024-03-06T03:16:26;41.19;36.55;46.40;;
66589;Laerm;53447;49.272;11.070;2024-03-06T03:18:52;41.10;36.55;42.49;;
66589;Laerm;53447;49.272;11.070;2024-03-06T03:21:17;41.09;37.45;42.31;;
66589;Laerm;53447;49.272;11.070;2024-03-06T03:23:43;41.03;35.19;42.31;;
66589;Laerm;53447;49.272;11.070;2024-03-06T03:26:08;41.07;37.71;42.27;;
66589;Laerm;53447;49.272;11.070;2024-03-06T03:28:37;41.04;37.31;44.27;;
66589;Laerm;53447;49.272;11.070;2024-03-06T03:31:02;41.01;36.55;43.87;;
66589;Laerm;53447;49.272;11.070;2024-03-06T03:33:27;42.29;39.80;44.80;;
66589;Laerm;53447;49.272;11.070;2024-03-06T03:35:53;42.02;39.48;43.30;;
66589;Laerm;53447;49.272;11.070;2024-03-06T03:38:18;41.95;39.80;43.51;;
66589;Laerm;53447;49.272;11.070;2024-03-06T03:40:43;42.65;40.72;50.94;;
66589;Laerm;53447;49.272;11.070;2024-03-06T03:43:08;43.04;40.46;51.48;;
66589;Laerm;53447;49.272;11.070;2024-03-06T03:45:34;42.52;40.53;43.89;;
66589;Laerm;53447;49.272;11.070;2024-03-06T03:48:02;42.97;40.53;44.41;;
66589;Laerm;53447;49.272;11.070;2024-03-06T03:50:28;42.50;40.59;44.16;;
66589;Laerm;53447;49.272;11.070;2024-03-06T03:52:53;43.78;40.91;55.40;;
66589;Laerm;53447;49.272;11.070;2024-03-06T03:55:18;42.62;40.46;44.01;;
66589;Laerm;53447;49.272;11.070;2024-03-06T03:57:43;42.91;41.32;44.36;;
66589;Laerm;53447;49.272;11.070;2024-03-06T04:00:09;43.30;41.48;45.50;;
66589;Laerm;53447;49.272;11.070;2024-03-06T04:02:36;43.20;40.97;44.83;;
66589;Laerm;53447;49.272;11.070;2024-03-06T04:05:01;42.34;38.63;43.57;;
66589;Laerm;53447;49.272;11.070;2024-03-06T04:07:27;41.80;36.87;45.88;;
66589;Laerm;53447;49.272;11.070;2024-03-06T04:09:52;41.41;37.71;42.73;;
66589;Laerm;53447;49.272;11.070;2024-03-06T04:12:17;41.36;36.55;47.27;;
66589;Laerm;53447;49.272;11.070;2024-03-06T04:14:43;41.26;37.45;43.19;;
66589;Laerm;53447;49.272;11.070;2024-03-06T04:17:09;41.34;37.02;42.77;;
66589;Laerm;53447;49.272;11.070;2024-03-06T04:19:34;41.51;35.41;43.51;;
66589;Laerm;53447;49.272;11.070;2024-03-06T04:21:59;42.20;37.58;43.37;;
66589;Laerm;53447;49.272;11.070;2024-03-06T04:24:24;48.49;39.30;66.40;;
66589;Laerm;53447;49.272;11.070;2024-03-06T04:26:49;41.61;38.07;44.78;;
66589;Laerm;53447;49.272;11.070;2024-03-06T04:29:15;41.57;37.96;43.47;;
66589;Laerm;53447;49.272;11.070;2024-03-06T04:31:40;41.71;37.58;46.98;;
66589;Laerm;53447;49.272;11.070;2024-03-06T04:34:06;43.96;35.41;62.99;;
66589;Laerm;53447;49.272;11.070;2024-03-06T04:36:31;42.86;37.02;56.80;;
66589;Laerm;53447;49.272;11.070;2024-03-06T04:38:56;42.91;35.62;57.84;;
66589;Laerm;53447;49.272;11.070;2024-03-06T04:41:22;45.41;40.66;60.15;;
66589;Laerm;53447;49.272;11.070;2024-03-06T04:43:48;46.15;37.84;62.82;;
66589;Laerm;53447;49.272;11.070;2024-03-06T04:46:15;46.48;37.84;64.27;;
66589;Laerm;53447;49.272;11.070;2024-03-06T04:48:40;44.11;40.44;60.56;;
66589;Laerm;53447;49.272;11.070;2024-03-06T04:51:06;49.36;39.88;64.30;;
66589;Laerm;53447;49.272;11.070;2024-03-06T04:53:31;53.89;39.12;69.85;;
66589;Laerm;53447;49.272;11.070;2024-03-06T04:55:56;51.94;40.32;66.92;;
66589;Laerm;53447;49.272;11.070;2024-03-06T04:58:21;53.18;40.44;67.92;;
66589;Laerm;53447;49.272;11.070;2024-03-06T05:00:46;54.07;41.26;68.60;;
66589;Laerm;53447;49.272;11.070;2024-03-06T05:03:12;55.22;42.61;69.61;;
66589;Laerm;53447;49.272;11.070;2024-03-06T05:05:37;51.76;41.32;64.53;;
66589;Laerm;53447;49.272;11.070;2024-03-06T05:08:03;50.64;40.46;62.98;;
66589;Laerm;53447;49.272;11.070;2024-03-06T05:10:28;50.92;40.59;63.57;;
66589;Laerm;53447;49.272;11.070;2024-03-06T05:12:54;52.61;41.48;65.57;;
66589;Laerm;53447;49.272;11.070;2024-03-06T05:15:19;50.70;40.85;65.98;;
66589;Laerm;53447;49.272;11.070;2024-03-06T05:17:44;48.36;40.72;64.44;;
66589;Laerm;53447;49.272;11.070;2024-03-06T05:20:10;47.78;40.18;65.03;;
66589;Laerm;53447;49.272;11.070;2024-03-06T05:22:35;46.82;40.66;62.79;;
66589;Laerm;53447;49.272;11.070;2024-03-06T05:25:01;50.37;40.46;67.34;;
66589;Laerm;53447;49.272;11.070;2024-03-06T05:27:26;45.18;40.18;57.38;;
66589;Laerm;53447;49.272;11.070;2024-03-06T05:29:51;49.13;40.32;59.29;;
66589;Laerm;53447;49.272;11.070;2024-03-06T05:32:17;49.68;40.46;59.68;;
66589;Laerm;53447;49.272;11.070;2024-03-06T05:34:42;50.19;40.53;60.92;;
66589;Laerm;53447;49.272;11.070;2024-03-06T05:37:07;50.89;40.39;63.67;;
66589;Laerm;53447;49.272;11.070;2024-03-06T05:39:33;52.31;40.59;64.85;;
66589;Laerm;53447;49.272;11.070;2024-03-06T05:42:02;53.16;41.26;70.96;;
66589;Laerm;53447;49.272;11.070;2024-03-06T05:44:28;52.49;41.69;65.42;;
66589;Laerm;53447;49.272;11.070;2024-03-06T05:46:53;52.22;40.69;68.78;;
66589;Laerm;53447;49.272;11.070;2024-03-06T05:49:19;53.84;40.79;68.02;;
66589;Laerm;53447;49.272;11.070;2024-03-06T05:51:44;53.85;40.85;66.07;;
66589;Laerm;53447;49.272;11.070;2024-03-06T05:54:10;49.15;39.30;64.71;;
66589;Laerm;53447;49.272;11.070;2024-03-06T05:56:35;50.81;39.80;69.76;;
66589;Laerm;53447;49.272;11.070;2024-03-06T05:59:01;43.60;39.96;55.75;;
66589;Laerm;53447;49.272;11.070;2024-03-06T06:01:32;49.04;40.32;64.90;;
66589;Laerm;53447;49.272;11.070;2024-03-06T06:03:57;52.86;41.32;72.28;;
66589;Laerm;53447;49.272;11.070;2024-03-06T06:06:23;55.35;41.54;71.33;;
66589;Laerm;53447;49.272;11.070;2024-03-06T06:08:48;51.63;41.21;65.42;;
66589;Laerm;53447;49.272;11.070;2024-03-06T06:11:13;53.62;40.53;71.63;;
66589;Laerm;53447;49.272;11.070;2024-03-06T06:13:39;50.21;40.53;67.79;;
66589;Laerm;53447;49.272;11.070;2024-03-06T06:16:07;54.61;39.98;72.31;;
66589;Laerm;53447;49.272;11.070;2024-03-06T06:18:32;51.71;40.85;69.86;;
66589;Laerm;53447;49.272;11.070;2024-03-06T06:20:57;50.80;41.43;75.82;;
66589;Laerm;53447;49.272;11.070;2024-03-06T06:23:23;47.18;40.79;65.88;;
66589;Laerm;53447;49.272;11.070;2024-03-06T06:25:48;47.79;41.21;62.04;;
66589;Laerm;53447;49.272;11.070;2024-03-06T06:28:13;53.96;40.03;69.86;;
66589;Laerm;53447;49.272;11.070;2024-03-06T06:30:38;55.65;40.72;74.37;;
66589;Laerm;53447;49.272;11.070;2024-03-06T06:33:04;54.39;41.03;69.18;;
66589;Laerm;53447;49.272;11.070;2024-03-06T06:35:29;46.54;40.32;59.19;;
66589;Laerm;53447;49.272;11.070;2024-03-06T06:37:55;51.99;40.59;68.88;;
66589;Laerm;53447;49.272;11.070;2024-03-06T06:40:20;48.77;39.88;65.61;;
66589;Laerm;53447;49.272;11.070;2024-03-06T06:42:45;54.31;40.39;73.43;;
66589;Laerm;53447;49.272;11.070;2024-03-06T06:45:14;52.62;40.53;69.47;;
66589;Laerm;53447;49.272;11.070;2024-03-06T06:47:39;48.41;40.72;64.31;;
66589;Laerm;53447;49.272;11.070;2024-03-06T06:50:05;48.60;40.25;64.54;;
66589;Laerm;53447;49.272;11.070;2024-03-06T06:52:30;53.34;40.39;69.45;;
66589;Laerm;53447;49.272;11.070;2024-03-06T06:54:58;45.53;39.30;60.93;;
66589;Laerm;53447;49.272;11.070;2024-03-06T06:57:23;48.85;40.72;70.02;;
66589;Laerm;53447;49.272;11.070;2024-03-06T06:59:48;55.75;40.56;69.11;;
66589;Laerm;53447;49.272;11.070;2024-03-06T07:02:14;52.53;40.32;66.19;;
66589;Laerm;53447;49.272;11.070;2024-03-06T07:04:39;49.56;40.39;67.62;;
66589;Laerm;53447;49.272;11.070;2024-03-06T07:07:05;51.91;40.11;71.35;;
66589;Laerm;53447;49.272;11.070;2024-03-06T07:09:30;48.06;40.25;66.74;;
66589;Laerm;53447;49.272;11.070;2024-03-06T07:11:55;46.49;40.39;67.71;;
66589;Laerm;53447;49.272;11.070;2024-03-06T07:14:21;50.61;40.25;70.56;;
66589;Laerm;53447;49.272;11.070;2024-03-06T07:16:46;50.05;40.46;69.03;;
66589;Laerm;53447;49.272;11.070;2024-03-06T07:19:12;45.97;40.32;59.24;;
66589;Laerm;53447;49.272;11.070;2024-03-06T07:21:37;53.94;40.46;73.95;;
66589;Laerm;53447;49.272;11.070;2024-03-06T07:24:03;46.25;40.11;61.12;;
66589;Laerm;53447;49.272;11.070;2024-03-06T07:26:29;44.13;40.18;62.67;;
66589;Laerm;53447;49.272;11.070;2024-03-06T07:28:55;46.29;40.11;66.39;;
66589;Laerm;53447;49.272;11.070;2024-03-06T07:31:20;48.82;39.30;67.03;;
66589;Laerm;53447;49.272;11.070;2024-03-06T07:33:45;45.65;39.03;60.52;;
66589;Laerm;53447;49.272;11.070;2024-03-06T07:36:11;69.44;40.25;93.69;;
66589;Laerm;53447;49.272;11.070;2024-03-06T07:38:36;54.07;39.48;69.53;;
66589;Laerm;53447;49.272;11.070;2024-03-06T07:41:01;50.87;38.53;66.69;;
66589;Laerm;53447;49.272;11.070;2024-03-06T07:43:27;52.16;38.93;68.08;;
66589;Laerm;53447;49.272;11.070;2024-03-06T07:45:52;55.03;39.12;71.09;;
66589;Laerm;53447;49.272;11.070;2024-03-06T07:48:17;46.53;38.31;62.59;;
66589;Laerm;53447;49.272;11.070;2024-03-06T07:50:42;46.65;36.55;63.91;;
66589;Laerm;53447;49.272;11.070;2024-03-06T07:53:07;48.00;36.38;66.84;;
66589;Laerm;53447;49.272;11.070;2024-03-06T07:55:33;52.27;38.08;70.71;;
66589;Laerm;53447;49.272;11.070;2024-03-06T07:57:58;45.22;39.03;61.27;;
66589;Laerm;53447;49.272;11.070;2024-03-06T08:00:23;47.23;38.63;64.80;;
66589;Laerm;53447;49.272;11.070;2024-03-06T08:02:48;54.79;38.20;71.45;;
66589;Laerm;53447;49.272;11.070;2024-03-06T08:05:17;53.82;36.02;70.94;;
66589;Laerm;53447;49.272;11.070;2024-03-06T08:07:42;43.36;37.31;62.00;;
66589;Laerm;53447;49.272;11.070;2024-03-06T08:10:08;52.00;38.31;67.84;;
66589;Laerm;53447;49.272;11.070;2024-03-06T08:12:34;44.55;38.42;59.46;;
66589;Laerm;53447;49.272;11.070;2024-03-06T08:14:59;55.87;39.64;71.13;;
66589;Laerm;53447;49.272;11.070;2024-03-06T08:17:26;54.64;40.18;69.77;;
66589;Laerm;53447;49.272;11.070;2024-03-06T08:19:51;49.77;38.31;68.61;;
66589;Laerm;53447;49.272;11.070;2024-03-06T08:22:16;52.78;39.80;69.60;;
66589;Laerm;53447;49.272;11.070;2024-03-06T08:24:42;54.70;38.08;70.34;;
66589;Laerm;53447;49.272;11.070;2024-03-06T08:27:07;54.10;39.39;68.77;;
66589;Laerm;53447;49.272;11.070;2024-03-06T08:29:32;54.84;40.91;67.52;;
66589;Laerm;53447;49.272;11.070;2024-03-06T08:31:57;52.09;40.32;67.06;;
66589;Laerm;53447;49.272;11.070;2024-03-06T08:34:24;48.66;40.32;67.11;;
66589;Laerm;53447;49.272;11.070;2024-03-06T08:36:50;48.39;39.88;69.05;;
66589;Laerm;53447;49.272;11.070;2024-03-06T08:39:15;48.88;39.96;67.23;;
66589;Laerm;53447;49.272;11.070;2024-03-06T08:41:41;49.00;39.56;67.26;;
66589;Laerm;53447;49.272;11.070;2024-03-06T08:44:07;43.99;39.96;63.06;;
66589;Laerm;53447;49.272;11.070;2024-03-06T08:46:32;45.60;40.03;58.75;;
66589;Laerm;53447;49.272;11.070;2024-03-06T08:48:58;55.50;39.72;72.61;;
66589;Laerm;53447;49.272;11.070;2024-03-06T08:51:23;49.59;39.30;66.04;;
66589;Laerm;53447;49.272;11.070;2024-03-06T08:53:49;52.68;40.11;69.15;;
66589;Laerm;53447;49.272;11.070;2024-03-06T08:56:15;44.76;39.88;59.93;;
66589;Laerm;53447;49.272;11.070;2024-03-06T08:58:40;44.07;39.72;60.97;;
66589;Laerm;53447;49.272;11.070;2024-03-06T09:01:08;45.96;40.91;57.19;;
66589;Laerm;53447;49.272;11.070;2024-03-06T09:03:33;51.87;39.21;71.85;;
66589;Laerm;53447;49.272;11.070;2024-03-06T09:05:58;43.23;39.03;56.31;;
66589;Laerm;53447;49.272;11.070;2024-03-06T09:08:25;42.43;38.93;59.93;;
66589;Laerm;53447;49.272;11.070;2024-03-06T09:10:50;42.91;38.73;56.66;;
66589;Laerm;53447;49.272;11.070;2024-03-06T09:13:15;47.38;36.87;69.19;;
66589;Laerm;53447;49.272;11.070;2024-03-06T09:15:40;46.58;39.96;63.48;;
66589;Laerm;53447;49.272;11.070;2024-03-06T09:18:06;49.54;38.93;69.41;;
66589;Laerm;53447;49.272;11.070;2024-03-06T09:20:31;52.27;40.79;68.33;;
66589;Laerm;53447;49.272;11.070;2024-03-06T09:22:56;47.67;39.30;66.11;;
66589;Laerm;53447;49.272;11.070;2024-03-06T09:25:23;46.44;40.11;62.31;;
66589;Laerm;53447;49.272;11.070;2024-03-06T09:27:48;43.69;40.46;56.13;;
66589;Laerm;53447;49.272;11.070;2024-03-06T09:30:13;44.88;40.18;60.19;;
66589;Laerm;53447;49.272;11.070;2024-03-06T09:32:38;54.35;40.53;69.19;;
66589;Laerm;53447;49.272;11.070;2024-03-06T09:35:05;48.71;39.72;63.00;;
66589;Laerm;53447;49.272;11.070;2024-03-06T09:37:31;46.46;39.30;67.75;;
66589;Laerm;53447;49.272;11.070;2024-03-06T09:39:56;48.97;39.48;66.16;;
66589;Laerm;53447;49.272;11.070;2024-03-06T09:42:21;52.89;38.73;69.26;;
66589;Laerm;53447;49.272;11.070;2024-03-06T09:44:48;44.86;38.42;59.96;;
66589;Laerm;53447;49.272;11.070;2024-03-06T09:47:13;48.30;38.31;67.10;;
66589;Laerm;53447;49.272;11.070;2024-03-06T09:49:41;51.66;38.53;66.98;;
66589;Laerm;53447;49.272;11.070;2024-03-06T09:52:08;54.54;39.88;70.28;;
66589;Laerm;53447;49.272;11.070;2024-03-06T09:54:33;53.41;38.83;70.61;;
66589;Laerm;53447;49.272;11.070;2024-03-06T09:56:59;44.01;37.58;60.14;;
66589;Laerm;53447;49.272;11.070;2024-03-06T09:59:24;42.17;37.45;51.47;;
66589;Laerm;53447;49.272;11.070;2024-03-06T10:01:50;43.68;38.42;67.05;;
66589;Laerm;53447;49.272;11.070;2024-03-06T10:04:22;53.15;37.96;84.72;;
66589;Laerm;53447;49.272;11.070;2024-03-06T10:06:47;43.49;38.08;63.37;;
66589;Laerm;53447;49.272;11.070;2024-03-06T10:09:16;45.90;40.11;58.18;;
66589;Laerm;53447;49.272;11.070;2024-03-06T10:11:41;55.28;39.12;72.33;;
66589;Laerm;53447;49.272;11.070;2024-03-06T10:14:07;46.56;39.64;59.67;;
66589;Laerm;53447;49.272;11.070;2024-03-06T10:16:32;51.11;38.31;68.30;;
66589;Laerm;53447;49.272;11.070;2024-03-06T10:19:05;55.68;41.48;71.12;;
66589;Laerm;53447;49.272;11.070;2024-03-06T10:21:40;50.52;40.11;67.64;;
66589;Laerm;53447;49.272;11.070;2024-03-06T10:24:05;51.48;41.26;69.30;;
66589;Laerm;53447;49.272;11.070;2024-03-06T10:26:31;46.99;37.71;66.47;;
66589;Laerm;53447;49.272;11.070;2024-03-06T10:28:56;63.78;38.08;88.89;;
66589;Laerm;53447;49.272;11.070;2024-03-06T10:31:28;47.14;39.64;63.74;;
66589;Laerm;53447;49.272;11.070;2024-03-06T10:33:53;54.22;39.80;70.02;;
66589;Laerm;53447;49.272;11.070;2024-03-06T10:36:19;52.31;40.25;69.99;;
66589;Laerm;53447;49.272;11.070;2024-03-06T10:38:44;48.77;39.12;65.66;;
66589;Laerm;53447;49.272;11.070;2024-03-06T10:41:10;55.09;39.88;70.97;;
66589;Laerm;53447;49.272;11.070;2024-03-06T10:43:39;43.81;37.31;63.03;;
66589;Laerm;53447;49.272;11.070;2024-03-06T10:46:06;43.95;37.31;66.10;;
66589;Laerm;53447;49.272;11.070;2024-03-06T10:48:31;52.53;38.08;71.46;;
66589;Laerm;53447;49.272;11.070;2024-03-06T10:50:57;47.08;39.03;65.24;;
66589;Laerm;53447;49.272;11.070;2024-03-06T10:53:22;49.96;37.58;66.87;;
66589;Laerm;53447;49.272;11.070;2024-03-06T10:55:51;47.91;38.42;64.30;;
66589;Laerm;53447;49.272;11.070;2024-03-06T10:58:16;48.89;37.58;67.23;;
66589;Laerm;53447;49.272;11.070;2024-03-06T11:00:47;46.35;38.73;62.07;;
66589;Laerm;53447;49.272;11.070;2024-03-06T11:03:13;52.23;41.09;70.41;;
66589;Laerm;53447;49.272;11.070;2024-03-06T11:05:42;52.54;39.72;68.57;;
66589;Laerm;53447;49.272;11.070;2024-03-06T11:08:07;53.33;36.37;70.27;;
66589;Laerm;53447;49.272;11.070;2024-03-06T11:10:34;47.81;38.53;63.44;;
66589;Laerm;53447;49.272;11.070;2024-03-06T11:13:00;45.40;39.03;63.51;;
66589;Laerm;53447;49.272;11.070;2024-03-06T11:15:26;44.14;39.48;59.85;;
66589;Laerm;53447;49.272;11.070;2024-03-06T11:17:52;43.47;37.71;53.28;;
66589;Laerm;53447;49.272;11.070;2024-03-06T11:20:19;45.70;36.38;58.63;;
66589;Laerm;53447;49.272;11.070;2024-03-06T11:28:05;51.40;38.42;70.99;;
66589;Laerm;53447;49.272;11.070;2024-03-06T11:30:31;43.44;36.38;64.81;;
66589;Laerm;53447;49.272;11.070;2024-03-06T11:32:59;43.88;38.42;54.77;;
66589;Laerm;53447;49.272;11.070;2024-03-06T11:35:27;54.01;37.17;69.99;;
66589;Laerm;53447;49.272;11.070;2024-03-06T11:37:53;49.09;37.96;67.07;;
66589;Laerm;53447;49.272;11.070;2024-03-06T11:40:25;53.75;38.63;69.03;;
66589;Laerm;53447;49.272;11.070;2024-03-06T11:42:50;53.23;37.96;70.72;;
66589;Laerm;53447;49.272;11.070;2024-03-06T11:45:16;53.29;37.17;72.59;;
66589;Laerm;53447;49.272;11.070;2024-03-06T11:47:58;44.76;38.20;65.12;;
66589;Laerm;53447;49.272;11.070;2024-03-06T11:50:25;51.51;37.45;70.13;;
66589;Laerm;53447;49.272;11.070;2024-03-06T11:52:51;53.66;39.48;69.53;;
66589;Laerm;53447;49.272;11.070;2024-03-06T11:55:16;54.72;39.80;72.75;;
66589;Laerm;53447;49.272;11.070;2024-03-06T11:57:41;52.19;37.96;70.51;;
66589;Laerm;53447;49.272;11.070;2024-03-06T12:00:07;56.31;39.88;72.67;;
66589;Laerm;53447;49.272;11.070;2024-03-06T12:02:33;54.31;37.58;73.51;;
66589;Laerm;53447;49.272;11.070;2024-03-06T12:05:02;55.70;40.66;70.43;;
66589;Laerm;53447;49.272;11.070;2024-03-06T12:07:28;50.66;39.30;69.40;;
66589;Laerm;53447;49.272;11.070;2024-03-06T12:09:53;43.79;39.80;56.96;;
66589;Laerm;53447;49.272;11.070;2024-03-06T12:12:18;55.53;39.48;71.88;;
66589;Laerm;53447;49.272;11.070;2024-03-06T12:14:43;53.02;39.39;71.13;;
66589;Laerm;53447;49.272;11.070;2024-03-06T12:17:20;45.81;39.48;56.53;;
66589;Laerm;53447;49.272;11.070;2024-03-06T12:19:45;56.45;40.91;74.40;;
66589;Laerm;53447;49.272;11.070;2024-03-06T12:22:11;57.54;40.46;75.81;;
66589;Laerm;53447;49.272;11.070;2024-03-06T12:24:36;44.78;37.31;60.44;;
66589;Laerm;53447;49.272;11.070;2024-03-06T12:27:03;52.92;38.83;70.80;;
66589;Laerm;53447;49.272;11.070;2024-03-06T12:29:29;46.01;39.48;58.97;;
66589;Laerm;53447;49.272;11.070;2024-03-06T12:31:58;43.71;37.45;56.74;;
66589;Laerm;53447;49.272;11.070;2024-03-06T12:34:23;52.74;36.38;73.17;;
66589;Laerm;53447;49.272;11.070;2024-03-06T12:36:48;56.54;39.88;71.88;;
66589;Laerm;53447;49.272;11.070;2024-03-06T12:39:15;43.75;39.72;61.21;;
66589;Laerm;53447;49.272;11.070;2024-03-06T12:41:43;53.71;39.39;72.18;;
66589;Laerm;53447;49.272;11.070;2024-03-06T12:44:08;53.17;40.03;71.55;;
66589;Laerm;53447;49.272;11.070;2024-03-06T12:46:33;51.29;38.20;66.91;;
66589;Laerm;53447;49.272;11.070;2024-03-06T12:48:59;54.96;39.39;70.45;;
66589;Laerm;53447;49.272;11.070;2024-03-06T12:51:24;50.09;38.93;65.82;;
66589;Laerm;53447;49.272;11.070;2024-03-06T12:53:50;49.24;38.31;65.82;;
66589;Laerm;53447;49.272;11.070;2024-03-06T12:56:16;53.08;37.45;68.24;;
66589;Laerm;53447;49.272;11.070;2024-03-06T12:58:41;56.33;38.07;70.62;;
66589;Laerm;53447;49.272;11.070;2024-03-06T13:01:07;50.95;38.08;65.92;;
66589;Laerm;53447;49.272;11.070;2024-03-06T13:03:32;58.92;37.71;76.72;;
66589;Laerm;53447;49.272;11.070;2024-03-06T13:05:57;48.71;36.71;65.91;;
66589;Laerm;53447;49.272;11.070;2024-03-06T13:08:23;46.38;37.31;65.27;;
66589;Laerm;53447;49.272;11.070;2024-03-06T13:10:48;50.88;40.79;69.34;;
66589;Laerm;53447;49.272;11.070;2024-03-06T13:13:13;50.12;37.84;67.96;;
66589;Laerm;53447;49.272;11.070;2024-03-06T13:15:40;51.99;40.85;67.40;;
66589;Laerm;53447;49.272;11.070;2024-03-06T13:18:06;52.08;38.83;68.66;;
66589;Laerm;53447;49.272;11.070;2024-03-06T13:20:32;51.65;39.21;66.71;;
66589;Laerm;53447;49.272;11.070;2024-03-06T13:22:57;56.32;41.15;72.21;;
66589;Laerm;53447;49.272;11.070;2024-03-06T13:25:22;55.78;41.54;71.37;;
66589;Laerm;53447;49.272;11.070;2024-03-06T13:27:48;51.06;38.20;69.24;;
66589;Laerm;53447;49.272;11.070;2024-03-06T13:30:13;49.07;37.71;65.20;;